sensor_id;sensor_type;location;lat;lon;timestamp;P1;durP1;ratioP1;P2;durP2;ratioP2
37067;SDS011;22982;42.848;25.468;2022-10-22T00:00:50;16.55;;;10.45;;
37067;SDS011;22982;42.848;25.468;2022-10-22T00:05:53;16.25;;;10.50;;
37067;SDS011;22982;42.848;25.468;2022-10-22T00:10:55;20.67;;;11.23;;
37067;SDS011;22982;42.848;25.468;2022-10-22T00:15:58;14.48;;;8.27;;
37067;SDS011;22982;42.848;25.468;2022-10-22T00:21:00;14.85;;;9.52;;
37067;SDS011;22982;42.848;25.468;2022-10-22T00:26:03;13.90;;;9.32;;
37067;SDS011;22982;42.848;25.468;2022-10-22T00:31:05;12.93;;;9.98;;
37067;SDS011;22982;42.848;25.468;2022-10-22T00:36:07;14.93;;;9.85;;
37067;SDS011;22982;42.848;25.468;2022-10-22T00:41:10;15.10;;;9.27;;
37067;SDS011;22982;42.848;25.468;2022-10-22T00:46:12;14.23;;;9.75;;
37067;SDS011;22982;42.848;25.468;2022-10-22T00:51:14;13.18;;;9.40;;
37067;SDS011;22982;42.848;25.468;2022-10-22T00:56:17;14.88;;;10.25;;
37067;SDS011;22982;42.848;25.468;2022-10-22T01:01:22;15.10;;;9.82;;
37067;SDS011;22982;42.848;25.468;2022-10-22T01:06:28;16.63;;;9.95;;
37067;SDS011;22982;42.848;25.468;2022-10-22T01:11:45;14.85;;;9.85;;
37067;SDS011;22982;42.848;25.468;2022-10-22T01:17:22;17.88;;;10.07;;
37067;SDS011;22982;42.848;25.468;2022-10-22T01:22:54;14.77;;;9.55;;
37067;SDS011;22982;42.848;25.468;2022-10-22T01:33:12;12.88;;;9.10;;
37067;SDS011;22982;42.848;25.468;2022-10-22T01:38:17;12.82;;;8.98;;
37067;SDS011;22982;42.848;25.468;2022-10-22T01:43:23;16.75;;;8.95;;
37067;SDS011;22982;42.848;25.468;2022-10-22T01:54:20;13.52;;;8.55;;
37067;SDS011;22982;42.848;25.468;2022-10-22T02:09:52;11.43;;;7.90;;
37067;SDS011;22982;42.848;25.468;2022-10-22T02:14:56;14.70;;;8.68;;
37067;SDS011;22982;42.848;25.468;2022-10-22T02:20:17;12.15;;;7.68;;
37067;SDS011;22982;42.848;25.468;2022-10-22T02:25:24;10.85;;;7.68;;
37067;SDS011;22982;42.848;25.468;2022-10-22T02:30:31;11.02;;;7.75;;
37067;SDS011;22982;42.848;25.468;2022-10-22T02:35:36;12.25;;;8.20;;
37067;SDS011;22982;42.848;25.468;2022-10-22T02:40:42;14.45;;;8.90;;
37067;SDS011;22982;42.848;25.468;2022-10-22T02:45:45;11.85;;;7.85;;
37067;SDS011;22982;42.848;25.468;2022-10-22T02:50:48;11.25;;;8.15;;
37067;SDS011;22982;42.848;25.468;2022-10-22T02:55:50;12.50;;;7.28;;
37067;SDS011;22982;42.848;25.468;2022-10-22T03:00:52;13.73;;;8.07;;
37067;SDS011;22982;42.848;25.468;2022-10-22T03:05:55;9.90;;;7.53;;
37067;SDS011;22982;42.848;25.468;2022-10-22T03:10:57;10.70;;;7.78;;
37067;SDS011;22982;42.848;25.468;2022-10-22T03:15:59;14.68;;;8.13;;
37067;SDS011;22982;42.848;25.468;2022-10-22T03:26:18;11.45;;;8.20;;
37067;SDS011;22982;42.848;25.468;2022-10-22T03:31:21;11.02;;;7.82;;
37067;SDS011;22982;42.848;25.468;2022-10-22T03:36:24;10.73;;;7.75;;
37067;SDS011;22982;42.848;25.468;2022-10-22T03:41:26;12.38;;;8.93;;
37067;SDS011;22982;42.848;25.468;2022-10-22T03:46:29;12.02;;;7.55;;
37067;SDS011;22982;42.848;25.468;2022-10-22T03:51:32;10.65;;;7.80;;
37067;SDS011;22982;42.848;25.468;2022-10-22T03:56:34;10.45;;;7.55;;
37067;SDS011;22982;42.848;25.468;2022-10-22T04:01:37;13.10;;;7.85;;
37067;SDS011;22982;42.848;25.468;2022-10-22T04:06:39;12.40;;;7.80;;
37067;SDS011;22982;42.848;25.468;2022-10-22T04:11:41;9.45;;;7.53;;
37067;SDS011;22982;42.848;25.468;2022-10-22T04:16:43;16.48;;;8.40;;
37067;SDS011;22982;42.848;25.468;2022-10-22T04:21:46;15.98;;;10.27;;
37067;SDS011;22982;42.848;25.468;2022-10-22T04:26:48;17.15;;;12.07;;
37067;SDS011;22982;42.848;25.468;2022-10-22T04:31:50;17.88;;;12.27;;
37067;SDS011;22982;42.848;25.468;2022-10-22T04:36:53;16.52;;;12.68;;
37067;SDS011;22982;42.848;25.468;2022-10-22T04:41:55;17.90;;;12.45;;
37067;SDS011;22982;42.848;25.468;2022-10-22T04:46:58;20.38;;;13.55;;
37067;SDS011;22982;42.848;25.468;2022-10-22T04:52:00;17.98;;;11.80;;
37067;SDS011;22982;42.848;25.468;2022-10-22T04:57:02;18.23;;;13.70;;
37067;SDS011;22982;42.848;25.468;2022-10-22T05:02:05;16.05;;;11.52;;
37067;SDS011;22982;42.848;25.468;2022-10-22T05:07:08;20.92;;;14.30;;
37067;SDS011;22982;42.848;25.468;2022-10-22T05:12:11;21.85;;;15.32;;
37067;SDS011;22982;42.848;25.468;2022-10-22T05:17:13;18.95;;;13.27;;
37067;SDS011;22982;42.848;25.468;2022-10-22T05:22:15;18.80;;;13.00;;
37067;SDS011;22982;42.848;25.468;2022-10-22T05:27:18;19.30;;;12.63;;
37067;SDS011;22982;42.848;25.468;2022-10-22T05:32:20;19.58;;;12.23;;
37067;SDS011;22982;42.848;25.468;2022-10-22T05:37:27;20.02;;;12.80;;
37067;SDS011;22982;42.848;25.468;2022-10-22T05:42:32;15.50;;;12.73;;
37067;SDS011;22982;42.848;25.468;2022-10-22T05:47:35;19.58;;;13.93;;
37067;SDS011;22982;42.848;25.468;2022-10-22T05:52:37;27.90;;;14.25;;
37067;SDS011;22982;42.848;25.468;2022-10-22T05:57:40;21.88;;;15.65;;
37067;SDS011;22982;42.848;25.468;2022-10-22T06:02:42;20.35;;;13.38;;
37067;SDS011;22982;42.848;25.468;2022-10-22T06:07:47;18.75;;;11.35;;
37067;SDS011;22982;42.848;25.468;2022-10-22T06:12:50;24.92;;;15.32;;
37067;SDS011;22982;42.848;25.468;2022-10-22T06:17:52;26.42;;;14.25;;
37067;SDS011;22982;42.848;25.468;2022-10-22T06:23:07;16.48;;;12.02;;
37067;SDS011;22982;42.848;25.468;2022-10-22T06:28:10;13.88;;;10.52;;
37067;SDS011;22982;42.848;25.468;2022-10-22T06:33:14;11.63;;;8.40;;
37067;SDS011;22982;42.848;25.468;2022-10-22T06:38:17;9.77;;;7.97;;
37067;SDS011;22982;42.848;25.468;2022-10-22T06:43:19;7.35;;;5.85;;
37067;SDS011;22982;42.848;25.468;2022-10-22T06:48:21;7.95;;;6.88;;
37067;SDS011;22982;42.848;25.468;2022-10-22T06:53:23;5.75;;;4.57;;
37067;SDS011;22982;42.848;25.468;2022-10-22T06:58:30;7.88;;;5.97;;
37067;SDS011;22982;42.848;25.468;2022-10-22T07:03:32;8.98;;;5.68;;
37067;SDS011;22982;42.848;25.468;2022-10-22T07:08:35;10.15;;;7.40;;
37067;SDS011;22982;42.848;25.468;2022-10-22T07:13:38;8.77;;;6.65;;
37067;SDS011;22982;42.848;25.468;2022-10-22T07:18:41;6.93;;;5.80;;
37067;SDS011;22982;42.848;25.468;2022-10-22T07:23:44;6.03;;;5.43;;
37067;SDS011;22982;42.848;25.468;2022-10-22T07:28:47;9.98;;;5.47;;
37067;SDS011;22982;42.848;25.468;2022-10-22T07:33:49;27.80;;;6.28;;
37067;SDS011;22982;42.848;25.468;2022-10-22T07:38:56;12.27;;;4.93;;
37067;SDS011;22982;42.848;25.468;2022-10-22T07:44:03;7.32;;;4.65;;
37067;SDS011;22982;42.848;25.468;2022-10-22T07:49:13;6.68;;;4.18;;
37067;SDS011;22982;42.848;25.468;2022-10-22T07:54:15;7.15;;;4.88;;
37067;SDS011;22982;42.848;25.468;2022-10-22T07:59:17;6.32;;;5.10;;
37067;SDS011;22982;42.848;25.468;2022-10-22T08:04:19;6.05;;;4.00;;
37067;SDS011;22982;42.848;25.468;2022-10-22T08:15:28;5.25;;;3.63;;
37067;SDS011;22982;42.848;25.468;2022-10-22T08:20:32;5.53;;;3.72;;
37067;SDS011;22982;42.848;25.468;2022-10-22T08:25:34;9.85;;;5.60;;
37067;SDS011;22982;42.848;25.468;2022-10-22T08:30:37;8.50;;;6.10;;
37067;SDS011;22982;42.848;25.468;2022-10-22T08:35:39;5.95;;;4.63;;
37067;SDS011;22982;42.848;25.468;2022-10-22T08:40:41;6.93;;;4.50;;
37067;SDS011;22982;42.848;25.468;2022-10-22T08:45:59;5.68;;;4.45;;
37067;SDS011;22982;42.848;25.468;2022-10-22T08:51:17;6.50;;;5.05;;
37067;SDS011;22982;42.848;25.468;2022-10-22T08:56:22;6.18;;;4.10;;
37067;SDS011;22982;42.848;25.468;2022-10-22T09:01:33;5.93;;;4.28;;
37067;SDS011;22982;42.848;25.468;2022-10-22T09:06:39;5.75;;;3.80;;
37067;SDS011;22982;42.848;25.468;2022-10-22T09:11:43;7.50;;;4.85;;
37067;SDS011;22982;42.848;25.468;2022-10-22T09:27:16;10.73;;;8.68;;
37067;SDS011;22982;42.848;25.468;2022-10-22T09:32:24;10.57;;;5.18;;
37067;SDS011;22982;42.848;25.468;2022-10-22T09:37:28;8.02;;;4.93;;
37067;SDS011;22982;42.848;25.468;2022-10-22T09:42:34;9.68;;;5.53;;
37067;SDS011;22982;42.848;25.468;2022-10-22T09:47:40;8.90;;;5.40;;
37067;SDS011;22982;42.848;25.468;2022-10-22T09:53:11;10.13;;;6.10;;
37067;SDS011;22982;42.848;25.468;2022-10-22T09:58:17;16.48;;;14.15;;
37067;SDS011;22982;42.848;25.468;2022-10-22T10:03:30;19.13;;;11.93;;
37067;SDS011;22982;42.848;25.468;2022-10-22T10:08:34;15.98;;;5.68;;
37067;SDS011;22982;42.848;25.468;2022-10-22T10:19:16;6.30;;;4.35;;
37067;SDS011;22982;42.848;25.468;2022-10-22T10:34:47;8.77;;;5.38;;
37067;SDS011;22982;42.848;25.468;2022-10-22T10:45:41;12.27;;;8.27;;
37067;SDS011;22982;42.848;25.468;2022-10-22T11:01:26;6.85;;;6.15;;
37067;SDS011;22982;42.848;25.468;2022-10-22T11:06:38;16.92;;;6.03;;
37067;SDS011;22982;42.848;25.468;2022-10-22T11:11:47;7.38;;;5.40;;
37067;SDS011;22982;42.848;25.468;2022-10-22T11:16:57;10.38;;;5.47;;
37067;SDS011;22982;42.848;25.468;2022-10-22T11:32:32;10.35;;;6.22;;
37067;SDS011;22982;42.848;25.468;2022-10-22T11:37:35;11.52;;;5.95;;
37067;SDS011;22982;42.848;25.468;2022-10-22T11:42:43;6.22;;;5.60;;
37067;SDS011;22982;42.848;25.468;2022-10-22T11:53:30;8.98;;;5.45;;
37067;SDS011;22982;42.848;25.468;2022-10-22T12:03:50;9.23;;;5.57;;
37067;SDS011;22982;42.848;25.468;2022-10-22T12:09:02;7.40;;;5.50;;
37067;SDS011;22982;42.848;25.468;2022-10-22T12:14:21;8.00;;;6.20;;
37067;SDS011;22982;42.848;25.468;2022-10-22T12:19:43;11.13;;;6.47;;
37067;SDS011;22982;42.848;25.468;2022-10-22T12:24:50;9.07;;;6.43;;
37067;SDS011;22982;42.848;25.468;2022-10-22T12:29:55;10.07;;;7.50;;
37067;SDS011;22982;42.848;25.468;2022-10-22T12:35:02;12.40;;;7.50;;
37067;SDS011;22982;42.848;25.468;2022-10-22T12:40:23;14.23;;;9.60;;
37067;SDS011;22982;42.848;25.468;2022-10-22T12:45:27;14.85;;;8.20;;
37067;SDS011;22982;42.848;25.468;2022-10-22T12:50:33;11.35;;;7.28;;
37067;SDS011;22982;42.848;25.468;2022-10-22T12:55:41;49.05;;;29.17;;
37067;SDS011;22982;42.848;25.468;2022-10-22T13:00:47;113.20;;;70.22;;
37067;SDS011;22982;42.848;25.468;2022-10-22T13:05:49;26.20;;;14.25;;
37067;SDS011;22982;42.848;25.468;2022-10-22T13:10:53;24.75;;;12.10;;
37067;SDS011;22982;42.848;25.468;2022-10-22T13:21:21;14.73;;;8.20;;
37067;SDS011;22982;42.848;25.468;2022-10-22T13:26:41;23.13;;;15.20;;
37067;SDS011;22982;42.848;25.468;2022-10-22T13:31:46;77.00;;;52.95;;
37067;SDS011;22982;42.848;25.468;2022-10-22T13:36:51;66.40;;;41.28;;
37067;SDS011;22982;42.848;25.468;2022-10-22T13:41:53;113.90;;;77.57;;
37067;SDS011;22982;42.848;25.468;2022-10-22T13:46:55;37.92;;;21.15;;
37067;SDS011;22982;42.848;25.468;2022-10-22T13:51:58;80.25;;;56.17;;
37067;SDS011;22982;42.848;25.468;2022-10-22T13:57:01;25.02;;;14.23;;
37067;SDS011;22982;42.848;25.468;2022-10-22T14:02:15;12.32;;;8.23;;
37067;SDS011;22982;42.848;25.468;2022-10-22T14:07:19;15.50;;;9.05;;
37067;SDS011;22982;42.848;25.468;2022-10-22T14:12:22;16.10;;;9.93;;
37067;SDS011;22982;42.848;25.468;2022-10-22T14:17:25;27.80;;;11.35;;
37067;SDS011;22982;42.848;25.468;2022-10-22T14:22:29;38.33;;;17.63;;
37067;SDS011;22982;42.848;25.468;2022-10-22T14:27:31;14.68;;;8.88;;
37067;SDS011;22982;42.848;25.468;2022-10-22T14:32:40;16.40;;;9.52;;
37067;SDS011;22982;42.848;25.468;2022-10-22T14:37:43;27.08;;;18.98;;
37067;SDS011;22982;42.848;25.468;2022-10-22T14:42:46;284.70;;;209.75;;
37067;SDS011;22982;42.848;25.468;2022-10-22T14:47:50;26.33;;;12.43;;
37067;SDS011;22982;42.848;25.468;2022-10-22T14:52:55;17.70;;;11.90;;
37067;SDS011;22982;42.848;25.468;2022-10-22T14:58:00;69.10;;;21.42;;
37067;SDS011;22982;42.848;25.468;2022-10-22T15:03:03;25.77;;;17.38;;
37067;SDS011;22982;42.848;25.468;2022-10-22T15:08:06;34.17;;;22.05;;
37067;SDS011;22982;42.848;25.468;2022-10-22T15:13:08;34.40;;;25.83;;
37067;SDS011;22982;42.848;25.468;2022-10-22T15:18:11;30.42;;;22.38;;
37067;SDS011;22982;42.848;25.468;2022-10-22T15:23:13;31.77;;;20.88;;
37067;SDS011;22982;42.848;25.468;2022-10-22T15:28:16;39.47;;;22.38;;
37067;SDS011;22982;42.848;25.468;2022-10-22T15:33:18;32.65;;;19.83;;
37067;SDS011;22982;42.848;25.468;2022-10-22T15:38:25;36.90;;;21.60;;
37067;SDS011;22982;42.848;25.468;2022-10-22T15:43:30;34.17;;;20.83;;
37067;SDS011;22982;42.848;25.468;2022-10-22T15:48:32;24.85;;;17.30;;
37067;SDS011;22982;42.848;25.468;2022-10-22T15:53:35;33.83;;;20.40;;
37067;SDS011;22982;42.848;25.468;2022-10-22T15:58:37;48.35;;;27.60;;
37067;SDS011;22982;42.848;25.468;2022-10-22T16:03:40;407.38;;;213.48;;
37067;SDS011;22982;42.848;25.468;2022-10-22T16:08:43;235.65;;;138.23;;
37067;SDS011;22982;42.848;25.468;2022-10-22T16:13:45;219.13;;;125.05;;
37067;SDS011;22982;42.848;25.468;2022-10-22T16:18:48;250.02;;;142.55;;
37067;SDS011;22982;42.848;25.468;2022-10-22T16:23:52;141.18;;;81.88;;
37067;SDS011;22982;42.848;25.468;2022-10-22T16:28:54;153.52;;;92.85;;
37067;SDS011;22982;42.848;25.468;2022-10-22T16:33:57;130.48;;;75.43;;
37067;SDS011;22982;42.848;25.468;2022-10-22T16:38:59;114.65;;;61.97;;
37067;SDS011;22982;42.848;25.468;2022-10-22T16:44:03;92.85;;;58.33;;
37067;SDS011;22982;42.848;25.468;2022-10-22T16:49:08;94.20;;;59.75;;
37067;SDS011;22982;42.848;25.468;2022-10-22T16:54:11;102.05;;;67.18;;
37067;SDS011;22982;42.848;25.468;2022-10-22T16:59:14;111.13;;;66.28;;
37067;SDS011;22982;42.848;25.468;2022-10-22T17:04:17;65.20;;;43.75;;
37067;SDS011;22982;42.848;25.468;2022-10-22T17:09:19;48.63;;;34.08;;
37067;SDS011;22982;42.848;25.468;2022-10-22T17:14:22;50.08;;;34.50;;
37067;SDS011;22982;42.848;25.468;2022-10-22T17:19:24;56.47;;;32.65;;
37067;SDS011;22982;42.848;25.468;2022-10-22T17:24:28;52.28;;;31.17;;
37067;SDS011;22982;42.848;25.468;2022-10-22T17:29:30;49.30;;;31.02;;
37067;SDS011;22982;42.848;25.468;2022-10-22T17:34:32;72.68;;;46.58;;
37067;SDS011;22982;42.848;25.468;2022-10-22T17:39:34;67.38;;;50.80;;
37067;SDS011;22982;42.848;25.468;2022-10-22T17:44:36;42.15;;;30.80;;
37067;SDS011;22982;42.848;25.468;2022-10-22T17:49:39;62.17;;;39.72;;
37067;SDS011;22982;42.848;25.468;2022-10-22T17:54:41;58.25;;;40.83;;
37067;SDS011;22982;42.848;25.468;2022-10-22T17:59:44;78.80;;;49.47;;
37067;SDS011;22982;42.848;25.468;2022-10-22T18:04:50;65.10;;;45.85;;
37067;SDS011;22982;42.848;25.468;2022-10-22T18:09:53;58.55;;;40.92;;
37067;SDS011;22982;42.848;25.468;2022-10-22T18:14:55;54.08;;;35.47;;
37067;SDS011;22982;42.848;25.468;2022-10-22T18:19:57;56.92;;;38.22;;
37067;SDS011;22982;42.848;25.468;2022-10-22T18:25:00;49.00;;;29.50;;
37067;SDS011;22982;42.848;25.468;2022-10-22T18:30:03;39.90;;;27.73;;
37067;SDS011;22982;42.848;25.468;2022-10-22T18:35:08;36.90;;;24.95;;
37067;SDS011;22982;42.848;25.468;2022-10-22T18:40:10;47.40;;;31.00;;
37067;SDS011;22982;42.848;25.468;2022-10-22T18:45:15;39.33;;;25.25;;
37067;SDS011;22982;42.848;25.468;2022-10-22T18:50:17;39.28;;;26.15;;
37067;SDS011;22982;42.848;25.468;2022-10-22T18:55:20;22.10;;;12.15;;
37067;SDS011;22982;42.848;25.468;2022-10-22T19:00:22;33.08;;;22.27;;
37067;SDS011;22982;42.848;25.468;2022-10-22T19:05:27;31.25;;;18.48;;
37067;SDS011;22982;42.848;25.468;2022-10-22T19:10:29;19.23;;;12.00;;
37067;SDS011;22982;42.848;25.468;2022-10-22T19:15:31;30.15;;;19.67;;
37067;SDS011;22982;42.848;25.468;2022-10-22T19:20:35;29.25;;;18.83;;
37067;SDS011;22982;42.848;25.468;2022-10-22T19:25:38;27.70;;;17.83;;
37067;SDS011;22982;42.848;25.468;2022-10-22T19:30:40;27.27;;;18.95;;
37067;SDS011;22982;42.848;25.468;2022-10-22T19:35:45;19.73;;;13.93;;
37067;SDS011;22982;42.848;25.468;2022-10-22T19:40:47;36.08;;;22.00;;
37067;SDS011;22982;42.848;25.468;2022-10-22T19:45:52;25.95;;;14.23;;
37067;SDS011;22982;42.848;25.468;2022-10-22T19:50:58;26.00;;;16.17;;
37067;SDS011;22982;42.848;25.468;2022-10-22T19:56:04;26.00;;;15.90;;
37067;SDS011;22982;42.848;25.468;2022-10-22T20:01:09;24.20;;;15.07;;
37067;SDS011;22982;42.848;25.468;2022-10-22T20:06:17;20.20;;;14.18;;
37067;SDS011;22982;42.848;25.468;2022-10-22T20:11:24;26.98;;;15.85;;
37067;SDS011;22982;42.848;25.468;2022-10-22T20:16:28;27.45;;;15.75;;
37067;SDS011;22982;42.848;25.468;2022-10-22T20:21:31;23.67;;;15.77;;
37067;SDS011;22982;42.848;25.468;2022-10-22T20:26:33;20.33;;;14.57;;
37067;SDS011;22982;42.848;25.468;2022-10-22T20:31:36;23.77;;;14.05;;
37067;SDS011;22982;42.848;25.468;2022-10-22T20:36:38;25.48;;;15.27;;
37067;SDS011;22982;42.848;25.468;2022-10-22T20:41:41;37.88;;;21.40;;
37067;SDS011;22982;42.848;25.468;2022-10-22T20:46:43;25.02;;;15.80;;
37067;SDS011;22982;42.848;25.468;2022-10-22T20:51:45;26.33;;;15.85;;
37067;SDS011;22982;42.848;25.468;2022-10-22T20:56:48;24.27;;;15.70;;
37067;SDS011;22982;42.848;25.468;2022-10-22T21:01:51;26.38;;;16.33;;
37067;SDS011;22982;42.848;25.468;2022-10-22T21:06:55;28.80;;;15.55;;
37067;SDS011;22982;42.848;25.468;2022-10-22T21:11:57;21.98;;;12.55;;
37067;SDS011;22982;42.848;25.468;2022-10-22T21:17:03;21.05;;;12.13;;
37067;SDS011;22982;42.848;25.468;2022-10-22T21:22:06;22.17;;;12.05;;
37067;SDS011;22982;42.848;25.468;2022-10-22T21:27:08;18.60;;;11.85;;
37067;SDS011;22982;42.848;25.468;2022-10-22T21:32:10;19.67;;;12.10;;
37067;SDS011;22982;42.848;25.468;2022-10-22T21:37:12;19.33;;;11.27;;
37067;SDS011;22982;42.848;25.468;2022-10-22T21:42:14;23.42;;;11.80;;
37067;SDS011;22982;42.848;25.468;2022-10-22T21:47:17;19.75;;;10.20;;
37067;SDS011;22982;42.848;25.468;2022-10-22T21:52:19;18.13;;;10.02;;
37067;SDS011;22982;42.848;25.468;2022-10-22T21:57:21;20.58;;;10.75;;
37067;SDS011;22982;42.848;25.468;2022-10-22T22:02:23;17.60;;;10.23;;
37067;SDS011;22982;42.848;25.468;2022-10-22T22:07:28;17.92;;;10.52;;
37067;SDS011;22982;42.848;25.468;2022-10-22T22:12:30;21.13;;;9.90;;
37067;SDS011;22982;42.848;25.468;2022-10-22T22:17:32;18.45;;;9.63;;
37067;SDS011;22982;42.848;25.468;2022-10-22T22:22:34;21.85;;;10.45;;
37067;SDS011;22982;42.848;25.468;2022-10-22T22:27:37;16.63;;;7.90;;
37067;SDS011;22982;42.848;25.468;2022-10-22T22:32:40;19.98;;;8.73;;
37067;SDS011;22982;42.848;25.468;2022-10-22T22:37:43;16.60;;;8.35;;
37067;SDS011;22982;42.848;25.468;2022-10-22T22:42:45;16.25;;;8.88;;
37067;SDS011;22982;42.848;25.468;2022-10-22T22:47:50;25.20;;;9.10;;
37067;SDS011;22982;42.848;25.468;2022-10-22T22:52:52;18.80;;;9.55;;
37067;SDS011;22982;42.848;25.468;2022-10-22T22:57:54;13.65;;;8.30;;
37067;SDS011;22982;42.848;25.468;2022-10-22T23:02:56;15.35;;;8.70;;
37067;SDS011;22982;42.848;25.468;2022-10-22T23:07:58;16.48;;;8.18;;
37067;SDS011;22982;42.848;25.468;2022-10-22T23:13:01;23.73;;;7.93;;
37067;SDS011;22982;42.848;25.468;2022-10-22T23:18:03;14.73;;;7.72;;
37067;SDS011;22982;42.848;25.468;2022-10-22T23:23:05;19.13;;;8.32;;
37067;SDS011;22982;42.848;25.468;2022-10-22T23:28:07;18.95;;;7.90;;
37067;SDS011;22982;42.848;25.468;2022-10-22T23:33:10;16.05;;;8.13;;
37067;SDS011;22982;42.848;25.468;2022-10-22T23:38:12;22.80;;;7.05;;
37067;SDS011;22982;42.848;25.468;2022-10-22T23:43:15;18.25;;;7.88;;
37067;SDS011;22982;42.848;25.468;2022-10-22T23:48:17;15.50;;;7.50;;
37067;SDS011;22982;42.848;25.468;2022-10-22T23:53:20;22.23;;;7.55;;
37067;SDS011;22982;42.848;25.468;2022-10-22T23:58:22;15.77;;;6.68;;
